Time;durP1;ratioP1;P1;durP2;ratioP2;P2;SDS_P1;SDS_P2;PMS_P1;PMS_P2;Temp;Humidity;BMP_temperature;BMP_pressure;BME280_temperature;BME280_humidity;BME280_pressure;Samples;Min_cycle;Max_cycle;Signal;HPM_P1;HPM_P2
2020/12/01 03:36:22;;;;;;;20.67;11.30;;;2.50;99.90;;;;;;4176880;34;20291;-82
2020/12/01 03:39:15;;;;;;;21.83;13.70;;;2.50;99.90;;;;;;4189355;26;20204;-82
2020/12/01 03:44:45;;;;;;;17.38;13.02;;;2.40;99.90;;;;;;4122764;27;20256;-82
2020/12/01 03:47:27;;;;;;;20.15;13.82;;;4.40;99.90;;;;;;4167804;26;20460;-82
2020/12/01 03:49:58;;;;;;;22.02;12.93;;;2.50;99.90;;;;;;4159011;34;20306;-82
2020/12/01 03:52:26;;;;;;;21.67;13.35;;;2.50;99.90;;;;;;4163624;34;20209;-82
2020/12/01 03:54:52;;;;;;;27.20;15.50;;;2.30;99.90;;;;;;4163748;34;20214;-82
2020/12/01 03:57:26;;;;;;;20.10;15.35;;;2.60;99.90;;;;;;4163190;34;20238;-81
2020/12/01 03:59:54;;;;;;;22.42;13.38;;;2.60;99.90;;;;;;4160771;34;20204;-82
2020/12/01 04:02:20;;;;;;;17.27;10.98;;;2.60;99.90;;;;;;4163050;34;20206;-82
2020/12/01 04:04:46;;;;;;;23.67;15.40;;;2.50;99.90;;;;;;4163370;34;20227;-82
2020/12/01 04:07:12;;;;;;;21.52;13.38;;;2.70;99.90;;;;;;4163248;34;20220;-82
2020/12/01 04:09:39;;;;;;;20.23;11.80;;;2.70;99.90;;;;;;4163089;34;20266;-82
2020/12/01 04:12:05;;;;;;;25.33;11.88;;;2.90;99.90;;;;;;4164059;34;20248;-82
2020/12/01 04:14:32;;;;;;;18.95;12.38;;;2.70;99.90;;;;;;4163501;34;20194;-83
2020/12/01 04:16:58;;;;;;;21.05;14.40;;;2.60;99.90;;;;;;4164228;34;20223;-82
2020/12/01 04:19:24;;;;;;;20.52;13.20;;;2.60;99.90;;;;;;4163950;34;20680;-82
2020/12/01 04:21:51;;;;;;;19.88;12.38;;;2.60;99.90;;;;;;4163269;34;20232;-82
2020/12/01 04:24:17;;;;;;;19.10;13.18;;;2.70;99.90;;;;;;4160637;34;20556;-82
2020/12/01 04:26:43;;;;;;;19.83;14.80;;;2.70;99.90;;;;;;4161124;34;20220;-82
2020/12/01 04:29:10;;;;;;;20.95;13.77;;;2.70;99.90;;;;;;4161570;34;20205;-83
2020/12/01 04:31:37;;;;;;;19.70;11.63;;;2.70;99.90;;;;;;4168246;26;20208;-82
2020/12/01 04:34:04;;;;;;;25.48;13.27;;;2.70;99.90;;;;;;4164264;34;20193;-82
2020/12/01 04:36:32;;;;;;;18.17;10.73;;;2.70;99.90;;;;;;4163336;34;20201;-82
2020/12/01 04:39:04;;;;;;;20.90;14.20;;;3.00;99.90;;;;;;4163814;34;20200;-82
2020/12/01 04:41:30;;;;;;;18.40;13.77;;;2.70;99.90;;;;;;4161508;34;20189;-83
2020/12/01 04:44:01;;;;;;;22.33;13.40;;;2.70;99.90;;;;;;4160959;34;20181;-83
2020/12/01 04:46:31;;;;;;;23.02;13.75;;;2.70;99.90;;;;;;4161402;34;20279;-82
2020/12/01 04:49:00;;;;;;;17.73;13.43;;;2.80;99.90;;;;;;4161130;34;20200;-83
2020/12/01 04:51:41;;;;;;;25.98;16.73;;;2.80;99.90;;;;;;4164217;34;20219;-82
2020/12/01 04:54:34;;;;;;;21.02;12.63;;;2.80;99.90;;;;;;4164176;34;20243;-82
2020/12/01 04:57:15;;;;;;;19.95;14.07;;;2.80;99.90;;;;;;4161105;34;20208;-82
2020/12/01 05:00:01;;;;;;;20.05;13.45;;;2.70;99.90;;;;;;4161606;34;20230;-82
2020/12/01 05:02:42;;;;;;;28.83;15.80;;;2.80;99.90;;;;;;4161106;34;20220;-83
2020/12/01 05:05:40;;;;;;;25.58;14.68;;;2.80;99.90;;;;;;4164387;34;20204;-83
2020/12/01 05:21:40;;;;;;;23.92;13.18;;;3.00;99.90;;;;;;4169489;26;20278;-83
2020/12/01 05:24:07;;;;;;;26.27;16.08;;;2.90;99.90;;;;;;4162218;26;20235;-83
2020/12/01 05:26:38;;;;;;;25.60;14.50;;;3.00;99.90;;;;;;4162140;34;20704;-83
2020/12/01 05:29:04;;;;;;;24.15;16.63;;;3.00;99.90;;;;;;4164513;34;20255;-83
2020/12/01 05:31:41;;;;;;;22.70;14.00;;;3.10;99.90;;;;;;4175944;26;20214;-83
2020/12/01 05:34:18;;;;;;;21.40;15.60;;;3.20;99.90;;;;;;4162878;34;20522;-83
2020/12/01 05:36:45;;;;;;;20.80;15.27;;;3.20;99.90;;;;;;4165786;34;20228;-83
2020/12/01 05:39:17;;;;;;;30.52;16.63;;;3.20;99.90;;;;;;4165733;34;20220;-83
2020/12/01 05:41:47;;;;;;;22.40;15.63;;;3.20;99.90;;;;;;4163184;34;20188;-83
2020/12/01 05:44:24;;;;;;;20.40;15.75;;;3.30;99.90;;;;;;4166228;34;20181;-83
2020/12/01 05:46:57;;;;;;;19.92;14.32;;;3.30;99.90;;;;;;4166042;34;20722;-83
2020/12/01 05:49:34;;;;;;;26.23;16.58;;;3.30;99.90;;;;;;4166396;34;20291;-84
2020/12/01 05:52:06;;;;;;;25.83;14.55;;;3.30;99.90;;;;;;4166599;34;20231;-84
2020/12/01 05:54:37;;;;;;;23.75;14.80;;;3.30;99.90;;;;;;4163951;34;20282;-83
2020/12/01 05:57:18;;;;;;;21.95;14.60;;;3.30;99.90;;;;;;4167111;34;20243;-84
2020/12/01 05:59:52;;;;;;;21.38;15.60;;;3.30;99.90;;;;;;4167152;34;20212;-84
2020/12/01 06:02:28;;;;;;;20.83;13.15;;;3.30;99.90;;;;;;4167353;34;20212;-84
2020/12/01 06:04:55;;;;;;;19.45;13.93;;;3.30;99.90;;;;;;4164476;34;20212;-84
2020/12/01 06:07:27;;;;;;;24.40;15.15;;;3.50;99.90;;;;;;4164356;34;20231;-84
2020/12/01 06:10:09;;;;;;;24.52;14.32;;;3.30;99.90;;;;;;4178868;26;20231;-84
2020/12/01 06:13:02;;;;;;;22.77;15.73;;;3.30;99.90;;;;;;4164243;34;20566;-84
2020/12/01 06:15:29;;;;;;;23.98;16.17;;;3.30;99.90;;;;;;4159409;34;20223;-84
2020/12/01 06:18:01;;;;;;;20.20;15.00;;;3.30;99.90;;;;;;4164959;34;20221;-84
2020/12/01 06:20:34;;;;;;;22.27;14.93;;;3.30;99.90;;;;;;4164648;34;20315;-84
2020/12/01 06:23:41;;;;;;;23.70;15.27;;;3.40;99.90;;;;;;4165073;34;20223;-84
2020/12/01 06:26:32;;;;;;;23.00;16.23;;;3.40;99.90;;;;;;4167769;34;20243;-84
2020/12/01 06:29:28;;;;;;;22.55;15.20;;;3.40;99.90;;;;;;4156855;34;20193;-84
2020/12/01 06:32:27;;;;;;;23.52;15.02;;;3.40;99.90;;;;;;4157433;34;20185;-84
2020/12/01 06:35:26;;;;;;;18.40;12.25;;;3.40;99.90;;;;;;4164562;34;20217;-84
2020/12/01 06:38:11;;;;;;;20.42;13.07;;;3.40;99.90;;;;;;4155705;34;20189;-83
2020/12/01 06:40:41;;;;;;;18.95;15.70;;;3.40;99.90;;;;;;4164370;34;20208;-83
2020/12/01 06:43:14;;;;;;;17.60;13.60;;;3.30;99.90;;;;;;4167765;34;20197;-84
2020/12/01 06:45:44;;;;;;;20.33;12.63;;;3.40;99.90;;;;;;4175753;26;20230;-83
2020/12/01 06:48:15;;;;;;;23.30;14.27;;;3.40;99.90;;;;;;4165154;34;20181;-84
2020/12/01 06:50:48;;;;;;;22.10;13.82;;;3.40;99.90;;;;;;4165560;34;20217;-84
2020/12/01 06:53:26;;;;;;;15.98;11.52;;;3.40;99.90;;;;;;4177423;26;20200;-84
2020/12/01 06:56:11;;;;;;;17.80;11.63;;;3.40;99.90;;;;;;4166350;34;20205;-84
2020/12/01 06:58:40;;;;;;;22.40;13.88;;;3.80;99.90;;;;;;4169322;34;20201;-84
2020/12/01 07:01:25;;;;;;;13.25;10.88;;;3.40;99.90;;;;;;4168440;34;20209;-84
2020/12/01 07:04:25;;;;;;;19.23;12.60;;;3.40;99.90;;;;;;4166024;34;20212;-84
2020/12/01 07:06:55;;;;;;;19.92;13.73;;;3.40;99.90;;;;;;4165822;34;20250;-84
2020/12/01 07:09:30;;;;;;;18.50;12.05;;;3.40;99.90;;;;;;4165587;34;20197;-85
2020/12/01 07:12:44;;;;;;;18.55;12.85;;;3.50;99.90;;;;;;4179411;26;20513;-84
2020/12/01 07:32:51;;;;;;;;;;;;;;;;;;;;;
2020/12/01 08:15:07;;;;;;;13.75;9.38;;;3.60;99.90;;;;;;4106286;27;20241;-83
2020/12/01 08:17:42;;;;;;;13.13;9.52;;;4.10;99.90;;;;;;4145541;34;20345;-82
2020/12/01 08:20:34;;;;;;;14.45;8.70;;;3.80;99.90;;;;;;4158670;26;20209;-83
2020/12/01 08:23:09;;;;;;;11.23;8.48;;;3.80;99.90;;;;;;4174297;26;20189;-82
2020/12/01 08:25:38;;;;;;;16.88;9.65;;;4.30;99.90;;;;;;4162251;34;20242;-84
2020/12/01 08:28:45;;;;;;;10.00;8.50;;;3.80;99.90;;;;;;4174983;26;20248;-83
2020/12/01 08:32:00;;;;;;;12.18;8.13;;;4.60;99.90;;;;;;4168298;26;20222;-83
2020/12/01 10:47:30;;;;;;;8.40;7.35;;;3.70;99.90;;;;;;4070930;27;20246;-84
2020/12/01 11:42:12;;;;;;;9.00;7.15;;;4.70;99.90;;;;;;4056176;27;20308;-84
2020/12/01 12:20:15;;;;;;;10.77;6.90;;;;;;;;;;4173415;26;20233;-85
2020/12/01 12:26:05;;;;;;;8.93;6.43;;;;;;;;;;4163411;26;20193;-85
2020/12/01 12:45:30;;;;;;;7.82;7.00;;;4.70;99.90;;;;;;4033372;27;20231;-86
2020/12/01 17:18:41;;;;;;;11.88;9.85;;;4.80;99.90;;;;;;4157585;27;20310;-86
2020/12/01 17:21:38;;;;;;;12.50;11.10;;;4.70;99.90;;;;;;4159353;34;20200;-86
2020/12/01 17:27:29;;;;;;;;;;;;;;;;;;;;;
2020/12/01 17:30:42;;;;;;;11.68;9.27;;;4.80;99.90;;;;;;4161998;34;20207;-85
2020/12/01 17:33:33;;;;;;;11.70;9.50;;;4.80;99.90;;;;;;4092827;27;20234;-84
2020/12/01 17:36:25;;;;;;;;;;;;;;;;;;;;;
2020/12/01 17:42:09;;;;;;;17.15;10.60;;;4.70;99.90;;;;;;4148997;28;20204;-86
2020/12/01 17:44:45;;;;;;;14.18;12.27;;;4.40;99.90;;;;;;4162765;34;20185;-86
2020/12/01 17:50:41;;;;;;;14.93;12.18;;;4.80;99.90;;;;;;4148171;27;20283;-85
2020/12/01 17:53:17;;;;;;;18.77;12.32;;;4.80;99.90;;;;;;4159554;34;20220;-85
2020/12/01 17:55:45;;;;;;;18.60;12.00;;;4.80;99.90;;;;;;4163641;34;20200;-85
2020/12/01 18:18:32;;;;;;;17.55;12.93;;;4.70;99.90;;;;;;4106054;27;20226;-85
2020/12/01 18:21:58;;;;;;;20.00;13.05;;;4.80;99.90;;;;;;4105147;27;20207;-85
2020/12/01 18:28:28;;;;;;;;;;;;;;;;;;;;;
2020/12/01 18:41:42;;;;;;;22.50;15.63;;;4.40;99.90;;;;;;4051991;28;20305;-84
2020/12/01 18:44:51;;;;;;;;;;;;;;;;;;;;;
2020/12/01 18:47:25;;;;;;;23.48;15.60;;;5.90;99.90;;;;;;4156399;34;20602;-82
2020/12/01 18:50:16;;;;;;;17.60;14.68;;;4.40;99.90;;;;;;4161309;34;20213;-82
2020/12/01 18:53:31;;;;;;;26.58;15.90;;;4.60;99.90;;;;;;4163563;26;20233;-82
2020/12/01 18:56:25;;;;;;;;;;;;;;;;;;;;;
2020/12/01 19:02:28;;;;;;;17.10;11.30;;;4.00;99.90;;;;;;4061504;27;20247;-83
2020/12/01 19:04:57;;;;;;;20.67;12.25;;;4.30;99.90;;;;;;4171095;26;20208;-83
2020/12/01 19:07:25;;;;;;;27.35;13.90;;;4.30;99.90;;;;;;4159880;34;20204;-82
2020/12/01 19:10:11;;;;;;;;;;;;;;;;;;;;;
2020/12/01 19:19:52;;;;;;;;;;;;;;;;;;;;;
2020/12/01 19:23:06;;;;;;;;;;;;;;;;;;;;;
2020/12/01 19:25:34;;;;;;;15.70;10.80;;;4.20;99.90;;;;;;4143165;34;20232;-82
2020/12/01 19:28:00;;;;;;;16.65;10.45;;;4.30;99.90;;;;;;4165693;26;20193;-82
2020/12/01 19:30:29;;;;;;;15.02;9.63;;;4.20;99.90;;;;;;4157339;34;20754;-81
2020/12/01 19:32:57;;;;;;;21.25;12.75;;;4.10;99.90;;;;;;4159630;34;20243;-81
2020/12/01 19:35:26;;;;;;;16.92;12.50;;;4.20;99.90;;;;;;4171162;26;20234;-82
2020/12/01 19:37:54;;;;;;;18.38;13.45;;;5.90;99.90;;;;;;4167771;26;20228;-82
2020/12/01 19:40:24;;;;;;;20.63;12.52;;;4.00;99.90;;;;;;4157693;34;20232;-84
2020/12/01 19:43:01;;;;;;;;;;;;;;;;;;;;;
2020/12/01 19:45:31;;;;;;;18.65;11.70;;;4.60;99.90;;;;;;4155295;34;20743;-83
2020/12/01 19:48:00;;;;;;;20.40;11.45;;;4.10;99.90;;;;;;4158887;34;20208;-83
2020/12/01 19:50:37;;;;;;;20.98;11.82;;;;;;;;;;4158923;34;20223;-85
2020/12/01 19:53:04;;;;;;;19.10;10.82;;;4.20;99.90;;;;;;4162125;34;20246;-83
2020/12/01 19:55:32;;;;;;;21.13;11.65;;;4.20;99.90;;;;;;4158368;34;20212;-83
2020/12/01 19:58:02;;;;;;;16.60;10.57;;;4.20;99.90;;;;;;4163210;34;20186;-83
2020/12/01 20:00:30;;;;;;;13.90;10.10;;;4.30;99.90;;;;;;4167855;34;20231;-83
2020/12/01 20:02:58;;;;;;;13.43;9.98;;;4.40;99.90;;;;;;4164078;34;20231;-81
2020/12/01 20:05:25;;;;;;;17.17;9.77;;;4.30;99.90;;;;;;4163666;34;20195;-83
2020/12/01 20:07:54;;;;;;;17.08;10.80;;;4.40;99.90;;;;;;4159956;34;20231;-80
2020/12/01 20:10:21;;;;;;;20.13;12.95;;;4.30;99.90;;;;;;4167983;26;20185;-83
2020/12/01 20:12:47;;;;;;;16.65;11.77;;;4.10;99.90;;;;;;4155933;34;20758;-82
2020/12/01 20:15:14;;;;;;;18.95;12.02;;;4.20;99.90;;;;;;4158820;34;20219;-82
2020/12/01 20:17:40;;;;;;;14.63;10.45;;;4.30;99.90;;;;;;4160109;34;20193;-81
2020/12/01 20:20:09;;;;;;;20.00;10.75;;;4.30;99.90;;;;;;4159397;34;20190;-81
2020/12/01 20:22:36;;;;;;;18.27;11.75;;;4.30;99.90;;;;;;4164240;26;20713;-81
2020/12/01 20:25:03;;;;;;;15.65;9.95;;;4.30;99.90;;;;;;4157045;34;20575;-81
2020/12/01 20:27:30;;;;;;;19.00;11.15;;;4.30;99.90;;;;;;4159013;34;20236;-82
2020/12/01 20:29:57;;;;;;;19.42;11.45;;;4.10;99.90;;;;;;4168113;26;20196;-81
2020/12/01 20:32:23;;;;;;;26.05;15.48;;;4.30;99.90;;;;;;4159000;34;20192;-82
2020/12/01 20:34:50;;;;;;;21.17;14.13;;;4.30;99.90;;;;;;4156300;34;20220;-81
2020/12/01 20:37:46;;;;;;;16.77;10.98;;;4.40;99.90;;;;;;4156107;34;20193;-81
2020/12/01 20:40:36;;;;;;;20.33;13.35;;;4.20;99.90;;;;;;4155917;34;20724;-82
2020/12/01 20:43:06;;;;;;;18.83;11.32;;;4.30;99.90;;;;;;4167636;26;20299;-81
2020/12/01 20:45:32;;;;;;;30.48;13.45;;;4.30;99.90;;;;;;4155709;34;20201;-82
2020/12/01 20:47:59;;;;;;;34.58;16.50;;;4.30;99.90;;;;;;4155982;34;20208;-81
2020/12/01 20:50:25;;;;;;;18.88;11.15;;;4.20;99.90;;;;;;4158607;34;20217;-82
2020/12/01 20:52:51;;;;;;;21.50;11.90;;;4.20;99.90;;;;;;4155486;34;20185;-82
2020/12/01 20:55:18;;;;;;;24.67;11.55;;;4.10;99.90;;;;;;4155611;34;20260;-82
2020/12/01 20:57:45;;;;;;;37.72;12.98;;;4.10;99.90;;;;;;4155853;34;20322;-81
2020/12/01 21:00:14;;;;;;;15.50;10.20;;;4.10;99.90;;;;;;4169891;26;20224;-81
2020/12/01 21:02:40;;;;;;;28.50;11.48;;;4.10;99.90;;;;;;4158787;34;20560;-81
2020/12/01 21:05:07;;;;;;;34.58;12.60;;;4.10;99.90;;;;;;4158758;34;20581;-82
2020/12/01 21:07:34;;;;;;;23.45;13.27;;;4.00;99.90;;;;;;4158123;34;20204;-82
2020/12/01 21:10:05;;;;;;;28.60;11.65;;;4.00;99.90;;;;;;4157698;34;20241;-81
2020/12/01 21:12:35;;;;;;;22.45;11.98;;;4.00;99.90;;;;;;4158629;34;20494;-81
2020/12/01 21:15:03;;;;;;;22.83;12.55;;;4.00;99.90;;;;;;4158339;34;20744;-82
2020/12/01 21:17:32;;;;;;;23.83;10.43;;;4.00;99.90;;;;;;4158477;34;20267;-82
2020/12/01 21:19:58;;;;;;;18.25;10.95;;;4.60;99.90;;;;;;4158338;34;20227;-81
2020/12/01 21:22:27;;;;;;;19.23;11.20;;;4.00;99.90;;;;;;4157949;34;20209;-82
2020/12/01 21:24:56;;;;;;;21.85;11.25;;;4.00;99.90;;;;;;4155191;34;20185;-81
2020/12/01 21:27:36;;;;;;;25.75;10.25;;;4.10;99.90;;;;;;4155068;34;20216;-81
2020/12/01 21:30:19;;;;;;;20.80;10.32;;;4.10;99.90;;;;;;4162790;26;20212;-80
2020/12/01 21:32:51;;;;;;;14.30;10.30;;;4.10;99.90;;;;;;4171669;26;20721;-81
2020/12/01 21:35:19;;;;;;;21.60;11.68;;;4.10;99.90;;;;;;4155183;34;20544;-81
2020/12/01 21:37:45;;;;;;;18.90;9.75;;;4.00;99.90;;;;;;4155184;34;20232;-81
2020/12/01 21:40:13;;;;;;;14.80;10.98;;;4.20;99.90;;;;;;4155182;34;20298;-81
2020/12/01 21:43:07;;;;;;;18.20;11.23;;;4.20;99.90;;;;;;4155423;34;20716;-81
2020/12/01 21:45:36;;;;;;;12.90;9.50;;;4.10;99.90;;;;;;4158339;34;20335;-81
2020/12/01 21:48:06;;;;;;;14.73;9.43;;;4.10;99.90;;;;;;4158311;34;20186;-81
2020/12/01 21:50:35;;;;;;;21.60;12.50;;;4.00;99.90;;;;;;4158392;34;20208;-82
2020/12/01 21:53:45;;;;;;;23.25;12.00;;;3.90;99.90;;;;;;4163227;26;20224;-82
2020/12/01 21:56:28;;;;;;;24.75;14.25;;;3.90;99.90;;;;;;4158274;34;20209;-81
2020/12/01 21:59:37;;;;;;;17.58;11.13;;;3.90;99.90;;;;;;4166783;26;20212;-81
2020/12/01 22:02:34;;;;;;;15.52;10.98;;;3.90;99.90;;;;;;4155166;34;20751;-81
2020/12/01 22:05:45;;;;;;;18.30;10.65;;;3.80;99.90;;;;;;4158275;34;20211;-82
2020/12/01 22:08:37;;;;;;;16.05;11.57;;;3.80;99.90;;;;;;4155350;34;20201;-81
2020/12/01 22:11:12;;;;;;;17.90;12.27;;;3.80;99.90;;;;;;4158227;34;20219;-81
2020/12/01 22:13:47;;;;;;;16.67;11.38;;;3.80;99.90;;;;;;4155421;34;20227;-81
2020/12/01 22:16:19;;;;;;;14.35;10.30;;;3.80;99.90;;;;;;4155681;34;20870;-81
2020/12/01 22:18:46;;;;;;;19.50;12.15;;;3.70;99.90;;;;;;4156085;34;20197;-82
2020/12/01 22:21:31;;;;;;;17.70;13.05;;;3.70;99.90;;;;;;4159069;34;20549;-81
2020/12/01 22:24:15;;;;;;;20.05;13.95;;;3.60;99.90;;;;;;4156183;34;20188;-81
2020/12/01 22:27:02;;;;;;;18.02;13.60;;;3.80;99.90;;;;;;4158899;34;20196;-81
2020/12/01 22:29:59;;;;;;;16.98;11.90;;;4.50;99.90;;;;;;4158754;34;20581;-81
2020/12/01 22:32:37;;;;;;;25.52;13.82;;;3.80;99.90;;;;;;4155311;34;20223;-81
2020/12/01 22:35:17;;;;;;;22.67;13.50;;;3.80;99.90;;;;;;4158927;34;20215;-81
2020/12/01 22:37:48;;;;;;;18.63;14.15;;;3.80;99.90;;;;;;4158578;34;20184;-81
2020/12/01 22:40:16;;;;;;;22.40;12.55;;;3.80;99.90;;;;;;4158602;34;20213;-81
2020/12/01 22:42:44;;;;;;;30.35;15.30;;;3.70;99.90;;;;;;4155755;34;20214;-81
2020/12/01 22:45:35;;;;;;;18.60;12.25;;;3.80;99.90;;;;;;4158841;34;20541;-81
2020/12/01 22:48:44;;;;;;;18.83;11.63;;;3.80;99.90;;;;;;4156761;34;20209;-81
2020/12/01 22:51:44;;;;;;;15.73;11.45;;;3.60;99.90;;;;;;4160026;34;20193;-81
2020/12/01 22:54:31;;;;;;;18.02;10.77;;;3.80;99.90;;;;;;4123614;34;20209;-81
2020/12/01 22:57:31;;;;;;;14.93;11.18;;;3.70;99.90;;;;;;4159840;34;20192;-82
2020/12/01 22:59:59;;;;;;;14.77;10.60;;;3.80;99.90;;;;;;4159391;34;20776;-81
2020/12/01 23:02:30;;;;;;;10.90;9.38;;;3.70;99.90;;;;;;4156857;34;20189;-82
2020/12/01 23:04:56;;;;;;;12.85;10.23;;;4.50;99.90;;;;;;4157095;34;20235;-82
2020/12/01 23:07:24;;;;;;;12.50;10.32;;;3.80;99.90;;;;;;4160021;34;20228;-81
2020/12/01 23:10:13;;;;;;;20.58;14.10;;;3.90;99.90;;;;;;4160139;34;20554;-82
2020/12/01 23:12:46;;;;;;;14.85;9.80;;;4.20;99.90;;;;;;4156842;34;20220;-82
2020/12/01 23:15:17;;;;;;;18.48;13.25;;;3.90;99.90;;;;;;4158548;34;20204;-82
2020/12/01 23:17:43;;;;;;;15.90;11.82;;;3.80;99.90;;;;;;4159876;34;20228;-81
2020/12/01 23:20:13;;;;;;;13.32;11.15;;;3.90;99.90;;;;;;4160126;34;20212;-82
2020/12/01 23:22:39;;;;;;;19.67;13.18;;;3.80;99.90;;;;;;4156542;34;20220;-81
2020/12/01 23:25:07;;;;;;;18.58;13.52;;;3.80;99.90;;;;;;4156917;34;20754;-81
2020/12/01 23:27:40;;;;;;;18.40;12.30;;;3.80;99.90;;;;;;4159249;34;20208;-81
2020/12/01 23:30:13;;;;;;;16.50;14.00;;;3.70;99.90;;;;;;4156553;34;20208;-82
2020/12/01 23:32:41;;;;;;;16.73;13.18;;;3.80;99.90;;;;;;4156294;34;20233;-82
2020/12/01 23:35:10;;;;;;;15.02;11.95;;;3.80;99.90;;;;;;4156959;34;20283;-81
2020/12/01 23:37:47;;;;;;;19.13;13.77;;;4.00;99.90;;;;;;4156374;34;20181;-82
2020/12/01 23:40:13;;;;;;;16.92;12.13;;;3.90;99.90;;;;;;4156700;34;20222;-82
2020/12/01 23:43:23;;;;;;;18.90;14.75;;;3.90;99.90;;;;;;4159268;34;20240;-81
2020/12/01 23:45:59;;;;;;;16.83;12.27;;;3.90;99.90;;;;;;4156749;34;20216;-81
2020/12/01 23:48:29;;;;;;;16.50;12.15;;;3.70;99.90;;;;;;4159378;34;20229;-81
2020/12/01 23:50:57;;;;;;;13.95;10.73;;;3.50;99.90;;;;;;4161971;34;20229;-81
2020/12/01 23:53:25;;;;;;;14.80;12.38;;;3.50;99.90;;;;;;4170535;34;20206;-80
2020/12/01 23:55:51;;;;;;;17.77;13.45;;;3.60;99.90;;;;;;4167444;34;20214;-80
2020/12/01 23:58:18;;;;;;;15.52;11.85;;;3.60;99.90;;;;;;4163574;34;20227;-81
